Time;durP1;ratioP1;P1;durP2;ratioP2;P2;SDS_P1;SDS_P2;PMS_P1;PMS_P2;Temp;Humidity;BMP_temperature;BMP_pressure;BME280_temperature;BME280_humidity;BME280_pressure;Samples;Min_cycle;Max_cycle;Signal;HPM_P1;HPM_P2
2022/11/26 00:00:13;;;;;;;;;;;;;;;20.64;28.40;98305.28;5034624;28;1052;-75
2022/11/26 00:02:39;;;;;;;;;;;;;;;20.32;28.40;98302.19;5001855;28;975;-76
2022/11/26 00:05:04;;;;;;;;;;;;;;;20.45;28.35;98308.81;5033651;28;2011;-77
2022/11/26 00:07:30;;;;;;;;;;;;;;;20.66;28.04;98299.19;5034676;28;989;-76
2022/11/26 00:09:55;;;;;;;;;;;;;;;20.58;28.37;98312.66;5017950;28;1416;-76
2022/11/26 00:12:22;;;;;;;;;;;;;;;21.24;27.30;98303.31;5018105;28;1903;-76
2022/11/26 00:14:47;;;;;;;;;;;;;;;21.04;27.62;98299.69;5034268;28;956;-77
2022/11/26 00:17:13;;;;;;;;;;;;;;;20.49;28.36;98309.56;5034409;28;1135;-76
2022/11/26 00:19:39;;;;;;;;;;;;;;;20.45;28.19;98303.16;5033256;28;2003;-77
2022/11/26 00:22:04;;;;;;;;;;;;;;;20.61;28.30;98308.94;5017972;28;961;-76
2022/11/26 00:24:30;;;;;;;;;;;;;;;20.65;28.31;98311.72;5018085;28;986;-76
2022/11/26 00:26:56;;;;;;;;;;;;;;;20.99;27.70;98308.69;5017845;28;1045;-76
2022/11/26 00:29:21;;;;;;;;;;;;;;;20.96;27.60;98315.19;5052073;28;992;-76
2022/11/26 00:31:47;;;;;;;;;;;;;;;21.20;27.44;98321.59;5056605;28;1981;-76
2022/11/26 00:34:12;;;;;;;;;;;;;;;20.77;27.62;98326.03;5055382;28;2151;-76
2022/11/26 00:36:37;;;;;;;;;;;;;;;20.48;28.14;98330.59;5056193;28;1239;-76
2022/11/26 00:39:05;;;;;;;;;;;;;;;20.35;28.46;98332.38;5056187;28;978;-76
2022/11/26 00:41:34;;;;;;;;;;;;;;;20.61;28.21;98328.75;5056260;28;971;-76
2022/11/26 00:43:59;;;;;;;;;;;;;;;20.66;28.01;98345.22;5038646;28;982;-76
2022/11/26 00:46:25;;;;;;;;;;;;;;;20.73;28.08;98347.94;5038486;28;960;-76
2022/11/26 00:48:50;;;;;;;;;;;;;;;20.92;27.71;98354.06;5034234;28;1992;-76
2022/11/26 00:51:23;;;;;;;;;;;;;;;20.42;28.48;98355.69;5035997;28;1114;-76
2022/11/26 00:53:49;;;;;;;;;;;;;;;20.16;28.91;98354.50;5036153;28;1968;-76
2022/11/26 00:56:17;;;;;;;;;;;;;;;20.58;28.28;98352.25;5018799;28;983;-76
2022/11/26 00:58:42;;;;;;;;;;;;;;;21.05;27.64;98352.19;5002207;28;901;-76
2022/11/26 01:01:07;;;;;;;;;;;;;;;20.99;27.38;98353.94;5018290;28;980;-76
2022/11/26 01:03:33;;;;;;;;;;;;;;;20.71;27.69;98349.56;5018860;28;2093;-76
2022/11/26 01:05:59;;;;;;;;;;;;;;;20.32;28.48;98361.53;5038512;28;960;-76
2022/11/26 01:08:24;;;;;;;;;;;;;;;20.32;28.36;98356.66;5041686;28;974;-76
2022/11/26 01:10:49;;;;;;;;;;;;;;;20.92;27.68;98352.03;5060331;28;865;-76
2022/11/26 01:13:15;;;;;;;;;;;;;;;20.85;27.57;98354.19;5041772;28;1913;-76
2022/11/26 01:15:41;;;;;;;;;;;;;;;20.79;27.89;98357.53;5059988;28;925;-76
2022/11/26 01:18:11;;;;;;;;;;;;;;;20.86;27.82;98361.44;5023729;28;2131;-77
2022/11/26 01:20:36;;;;;;;;;;;;;;;20.53;27.91;98361.19;5022474;28;942;-76
2022/11/26 01:23:01;;;;;;;;;;;;;;;20.38;28.48;98354.16;5022072;28;956;-76
2022/11/26 01:25:27;;;;;;;;;;;;;;;20.64;27.85;98356.16;5022320;28;972;-75
2022/11/26 01:27:52;;;;;;;;;;;;;;;21.03;27.19;98351.81;5039476;28;929;-76
2022/11/26 01:30:19;;;;;;;;;;;;;;;21.00;27.61;98361.19;5039821;28;1004;-76
2022/11/26 01:32:44;;;;;;;;;;;;;;;20.81;27.63;98354.25;5021456;28;1981;-76
2022/11/26 01:35:10;;;;;;;;;;;;;;;20.28;28.33;98353.88;5034160;28;1652;-76
2022/11/26 01:37:35;;;;;;;;;;;;;;;20.33;28.20;98351.81;5039787;28;923;-76
2022/11/26 01:40:01;;;;;;;;;;;;;;;20.68;27.99;98367.41;5039733;28;857;-76
2022/11/26 01:42:45;;;;;;;;;;;;;;;21.14;27.09;98366.59;5033499;28;2073;-76
2022/11/26 01:45:16;;;;;;;;;;;;;;;20.94;27.46;98375.03;5041246;28;1560;-76
2022/11/26 01:47:41;;;;;;;;;;;;;;;21.10;27.05;98374.34;5041480;28;921;-76
2022/11/26 01:50:26;;;;;;;;;;;;;;;20.40;27.96;98371.47;5040952;28;2069;-76
2022/11/26 01:52:51;;;;;;;;;;;;;;;20.44;28.13;98380.69;5058853;28;1906;-76
2022/11/26 01:55:16;;;;;;;;;;;;;;;20.58;27.93;98374.84;5041596;28;840;-76
2022/11/26 01:57:42;;;;;;;;;;;;;;;20.65;27.70;98371.91;5059061;28;974;-76
2022/11/26 02:00:08;;;;;;;;;;;;;;;20.77;27.49;98376.13;5041560;28;984;-76
2022/11/26 02:02:37;;;;;;;;;;;;;;;20.86;27.37;98364.28;5058816;28;894;-76
2022/11/26 02:05:07;;;;;;;;;;;;;;;20.92;27.09;98371.81;5040438;28;1777;-76
2022/11/26 02:07:33;;;;;;;;;;;;;;;20.45;28.15;98377.44;5041222;28;961;-76
2022/11/26 02:09:59;;;;;;;;;;;;;;;20.53;27.81;98383.81;5058986;28;914;-76
2022/11/26 02:12:25;;;;;;;;;;;;;;;20.94;27.52;98385.56;5040968;28;1902;-76
2022/11/26 02:14:50;;;;;;;;;;;;;;;20.81;27.54;98383.31;5058856;28;889;-76
2022/11/26 02:17:21;;;;;;;;;;;;;;;21.05;26.95;98389.78;5059138;28;884;-76
2022/11/26 02:19:53;;;;;;;;;;;;;;;20.98;27.11;98397.59;5057416;28;1781;-76
2022/11/26 02:22:37;;;;;;;;;;;;;;;20.62;27.54;98392.53;5040794;28;1496;-76
2022/11/26 02:25:19;;;;;;;;;;;;;;;20.59;27.48;98399.06;5058339;28;1154;-76
2022/11/26 02:27:48;;;;;;;;;;;;;;;20.66;27.52;98398.13;5040751;28;903;-77
2022/11/26 02:30:14;;;;;;;;;;;;;;;21.07;26.93;98407.13;5039562;28;1013;-75
2022/11/26 02:32:43;;;;;;;;;;;;;;;20.90;27.33;98407.44;5040584;28;1981;-76
2022/11/26 02:35:12;;;;;;;;;;;;;;;20.96;27.37;98417.03;5056732;28;2172;-76
2022/11/26 02:37:47;;;;;;;;;;;;;;;20.48;28.04;98413.38;5039685;28;2102;-76
2022/11/26 02:40:13;;;;;;;;;;;;;;;20.41;28.09;98415.47;4996490;28;1016;-76
2022/11/26 02:42:38;;;;;;;;;;;;;;;20.93;27.54;98412.22;4996639;28;946;-76
2022/11/26 02:45:06;;;;;;;;;;;;;;;20.88;27.65;98416.38;4996176;28;972;-76
2022/11/26 02:47:32;;;;;;;;;;;;;;;21.05;27.41;98417.28;4996405;28;984;-76
2022/11/26 02:49:58;;;;;;;;;;;;;;;20.58;28.02;98420.09;4995359;28;2093;-76
2022/11/26 02:52:23;;;;;;;;;;;;;;;20.56;28.11;98416.88;4979910;28;1906;-76
2022/11/26 02:54:48;;;;;;;;;;;;;;;20.34;28.35;98426.88;4996393;28;930;-76
2022/11/26 02:57:14;;;;;;;;;;;;;;;20.90;27.81;98424.41;4979895;28;1426;-76
2022/11/26 02:59:40;;;;;;;;;;;;;;;20.89;27.89;98420.00;4957557;29;996;-76
2022/11/26 03:02:23;;;;;;;;;;;;;;;20.98;27.52;98421.00;4940952;29;985;-77
2022/11/26 03:04:50;;;;;;;;;;;;;;;20.66;27.91;98420.75;4956130;29;2380;-76
2022/11/26 03:07:15;;;;;;;;;;;;;;;20.58;28.06;98431.41;4957041;29;1054;-76
2022/11/26 03:09:47;;;;;;;;;;;;;;;20.44;28.46;98432.38;4957441;29;943;-76
2022/11/26 03:12:12;;;;;;;;;;;;;;;20.55;28.44;98435.06;4992934;28;1902;-76
2022/11/26 03:14:38;;;;;;;;;;;;;;;21.08;27.51;98436.19;4980170;28;992;-76
2022/11/26 03:17:03;;;;;;;;;;;;;;;21.11;27.58;98458.00;4995828;28;1017;-76
2022/11/26 03:19:29;;;;;;;;;;;;;;;20.72;28.06;98458.63;4978574;28;1776;-76
2022/11/26 03:21:54;;;;;;;;;;;;;;;20.62;28.23;98460.38;4979658;28;1021;-76
2022/11/26 03:24:20;;;;;;;;;;;;;;;20.39;28.57;98457.50;4995834;28;924;-76
2022/11/26 03:26:45;;;;;;;;;;;;;;;20.94;27.65;98464.75;4995555;28;954;-76
2022/11/26 03:29:10;;;;;;;;;;;;;;;20.98;27.72;98465.47;4995403;28;1014;-76
2022/11/26 03:31:36;;;;;;;;;;;;;;;21.06;27.46;98461.31;5014402;28;1993;-76
2022/11/26 03:34:01;;;;;;;;;;;;;;;20.66;27.97;98461.13;5020724;28;1977;-76
2022/11/26 03:36:27;;;;;;;;;;;;;;;20.66;28.03;98463.97;5039155;28;1168;-76
2022/11/26 03:38:52;;;;;;;;;;;;;;;20.75;27.99;98469.88;5056820;28;1592;-76
2022/11/26 03:41:17;;;;;;;;;;;;;;;20.77;27.93;98467.41;5054092;28;2148;-76
2022/11/26 03:43:43;;;;;;;;;;;;;;;21.09;27.79;98460.47;5056424;28;2081;-76
2022/11/26 03:46:08;;;;;;;;;;;;;;;20.61;28.22;98463.66;5022595;28;971;-76
2022/11/26 03:48:34;;;;;;;;;;;;;;;20.80;28.02;98460.91;5039341;28;961;-76
2022/11/26 03:50:59;;;;;;;;;;;;;;;20.61;28.28;98455.97;5055950;28;1843;-76
2022/11/26 03:53:24;;;;;;;;;;;;;;;20.81;27.92;98462.50;5021564;28;1910;-76
2022/11/26 03:55:50;;;;;;;;;;;;;;;20.89;27.87;98457.56;5038902;28;961;-76
2022/11/26 03:58:15;;;;;;;;;;;;;;;20.85;28.10;98456.81;5056586;28;887;-76
2022/11/26 04:00:41;;;;;;;;;;;;;;;20.48;28.71;98449.31;5056329;28;920;-76
2022/11/26 04:03:06;;;;;;;;;;;;;;;20.60;28.10;98456.41;5056924;28;914;-76
2022/11/26 04:05:32;;;;;;;;;;;;;;;21.01;27.88;98458.97;5055593;28;1765;-76
2022/11/26 04:07:57;;;;;;;;;;;;;;;21.21;27.35;98461.88;5038541;28;950;-76
2022/11/26 04:10:22;;;;;;;;;;;;;;;21.05;27.55;98462.53;5056725;28;908;-76
2022/11/26 04:12:48;;;;;;;;;;;;;;;20.84;27.86;98466.53;5056193;28;2146;-76
2022/11/26 04:15:13;;;;;;;;;;;;;;;20.71;27.85;98463.47;5056315;28;1182;-76
2022/11/26 04:17:39;;;;;;;;;;;;;;;20.48;28.26;98471.94;5021914;28;944;-76
2022/11/26 04:20:05;;;;;;;;;;;;;;;20.92;27.93;98478.50;5038462;28;957;-77
2022/11/26 04:22:30;;;;;;;;;;;;;;;21.20;27.31;98471.59;5021537;28;1916;-77
2022/11/26 04:24:55;;;;;;;;;;;;;;;21.25;27.17;98474.72;5004771;28;1010;-76
2022/11/26 04:27:21;;;;;;;;;;;;;;;20.84;27.65;98477.03;5056377;28;938;-76
2022/11/26 04:29:46;;;;;;;;;;;;;;;20.54;28.33;98470.22;5021324;28;2054;-76
2022/11/26 04:32:12;;;;;;;;;;;;;;;20.52;28.13;98461.34;5036206;28;1899;-76
2022/11/26 04:34:37;;;;;;;;;;;;;;;20.96;27.75;98462.28;5036234;28;904;-76
2022/11/26 04:37:03;;;;;;;;;;;;;;;21.15;27.54;98470.06;5036324;28;1198;-76
2022/11/26 04:39:28;;;;;;;;;;;;;;;21.14;27.40;98471.28;5037832;28;2067;-76
2022/11/26 04:41:54;;;;;;;;;;;;;;;20.52;28.43;98472.66;5004061;28;932;-76
2022/11/26 04:44:19;;;;;;;;;;;;;;;20.74;27.93;98490.91;5056274;28;936;-77
2022/11/26 04:46:44;;;;;;;;;;;;;;;20.48;28.54;98497.38;5037213;28;2058;-76
2022/11/26 04:49:10;;;;;;;;;;;;;;;20.93;27.57;98506.38;5055844;28;943;-76
2022/11/26 04:51:35;;;;;;;;;;;;;;;20.88;27.86;98512.53;5021402;28;1965;-76
2022/11/26 04:54:01;;;;;;;;;;;;;;;21.17;27.08;98515.69;5038179;28;1030;-76
2022/11/26 04:56:26;;;;;;;;;;;;;;;20.75;27.54;98515.13;5055592;28;912;-76
2022/11/26 04:58:51;;;;;;;;;;;;;;;20.58;27.95;98526.72;5055813;28;883;-76
2022/11/26 05:01:17;;;;;;;;;;;;;;;20.61;28.27;98528.69;5037850;28;2304;-76
2022/11/26 05:03:42;;;;;;;;;;;;;;;20.97;27.41;98538.22;5055222;28;2048;-76
2022/11/26 05:06:09;;;;;;;;;;;;;;;21.02;27.39;98534.91;5055823;28;1181;-76
2022/11/26 05:08:35;;;;;;;;;;;;;;;21.02;27.31;98534.91;5056073;28;983;-76
2022/11/26 05:11:01;;;;;;;;;;;;;;;20.49;28.31;98527.25;5021629;28;883;-76
2022/11/26 05:13:27;;;;;;;;;;;;;;;20.64;27.88;98528.63;5055717;28;1898;-77
2022/11/26 05:15:52;;;;;;;;;;;;;;;20.44;28.21;98522.03;5037720;28;758;-76
2022/11/26 05:18:18;;;;;;;;;;;;;;;20.97;27.34;98526.13;5055658;28;775;-76
2022/11/26 05:20:43;;;;;;;;;;;;;;;20.84;27.91;98534.41;5055738;28;889;-76
2022/11/26 05:23:09;;;;;;;;;;;;;;;20.97;27.60;98548.75;5003913;28;949;-76
2022/11/26 05:25:34;;;;;;;;;;;;;;;20.69;28.06;98533.81;5055787;28;692;-76
2022/11/26 05:27:59;;;;;;;;;;;;;;;20.71;27.98;98536.22;5055202;28;834;-76
2022/11/26 05:30:25;;;;;;;;;;;;;;;20.45;28.36;98537.75;5055885;28;770;-76
2022/11/26 05:32:50;;;;;;;;;;;;;;;21.05;27.14;98550.25;5055398;28;1902;-76
2022/11/26 05:35:16;;;;;;;;;;;;;;;21.12;27.33;98541.63;5055553;28;962;-76
2022/11/26 05:37:41;;;;;;;;;;;;;;;20.98;27.34;98545.50;5055347;28;715;-76
2022/11/26 05:40:07;;;;;;;;;;;;;;;20.60;27.67;98541.22;5055783;28;791;-76
2022/11/26 05:42:33;;;;;;;;;;;;;;;20.66;27.82;98540.31;5054924;28;834;-76
2022/11/26 05:44:58;;;;;;;;;;;;;;;20.50;28.04;98537.31;5055474;28;736;-76
2022/11/26 05:47:23;;;;;;;;;;;;;;;20.71;27.63;98553.19;5055546;28;723;-76
2022/11/26 05:49:49;;;;;;;;;;;;;;;20.90;27.55;98557.34;5055316;28;751;-76
2022/11/26 05:52:14;;;;;;;;;;;;;;;20.86;27.36;98565.09;5055313;28;1988;-76
2022/11/26 05:54:40;;;;;;;;;;;;;;;20.48;28.17;98560.34;5057297;28;731;-76
2022/11/26 05:57:05;;;;;;;;;;;;;;;20.46;27.92;98565.63;5058807;28;750;-76
2022/11/26 05:59:31;;;;;;;;;;;;;;;20.45;27.99;98572.47;5058737;28;752;-76
2022/11/26 06:01:56;;;;;;;;;;;;;;;20.72;27.51;98575.38;5058740;28;823;-76
2022/11/26 06:04:22;;;;;;;;;;;;;;;20.79;27.38;98580.94;5023922;28;892;-76
2022/11/26 06:06:47;;;;;;;;;;;;;;;20.85;27.51;98580.47;5058902;28;798;-76
2022/11/26 06:09:13;;;;;;;;;;;;;;;20.42;28.19;98575.38;5058668;28;741;-77
2022/11/26 06:11:38;;;;;;;;;;;;;;;20.52;28.08;98585.72;5058397;28;1977;-76
2022/11/26 06:14:04;;;;;;;;;;;;;;;20.63;28.06;98589.25;5023595;28;904;-76
2022/11/26 06:16:29;;;;;;;;;;;;;;;20.92;27.67;98598.13;5058434;28;813;-76
2022/11/26 06:18:54;;;;;;;;;;;;;;;21.00;27.25;98593.19;5058299;28;739;-76
2022/11/26 06:21:20;;;;;;;;;;;;;;;20.74;27.71;98589.91;5058577;28;812;-76
2022/11/26 06:23:45;;;;;;;;;;;;;;;20.71;27.57;98593.56;5058651;28;732;-76
2022/11/26 06:26:11;;;;;;;;;;;;;;;20.64;27.76;98599.31;5057982;28;862;-76
2022/11/26 06:28:36;;;;;;;;;;;;;;;21.27;26.93;98596.78;5058284;28;853;-76
2022/11/26 06:31:02;;;;;;;;;;;;;;;20.93;27.49;98596.09;5058325;28;911;-76
2022/11/26 06:33:27;;;;;;;;;;;;;;;20.90;27.28;98602.63;5058257;28;1897;-76
2022/11/26 06:35:57;;;;;;;;;;;;;;;20.72;27.64;98600.81;5058117;28;1109;-76
2022/11/26 06:38:22;;;;;;;;;;;;;;;20.66;27.65;98608.19;5040982;28;887;-76
2022/11/26 06:40:47;;;;;;;;;;;;;;;20.54;27.78;98600.28;5006177;28;851;-76
2022/11/26 06:43:13;;;;;;;;;;;;;;;20.97;27.12;98611.00;5058037;28;771;-76
2022/11/26 06:45:38;;;;;;;;;;;;;;;21.25;26.73;98613.41;5057716;28;810;-76
2022/11/26 06:48:04;;;;;;;;;;;;;;;21.03;27.06;98612.09;5057808;28;723;-76
2022/11/26 06:50:29;;;;;;;;;;;;;;;20.86;27.36;98616.00;5057909;28;803;-76
2022/11/26 06:52:55;;;;;;;;;;;;;;;20.98;27.20;98615.41;5057707;28;1902;-76
2022/11/26 06:55:20;;;;;;;;;;;;;;;21.01;27.32;98623.06;5057809;28;758;-76
2022/11/26 06:57:50;;;;;;;;;;;;;;;20.94;27.19;98623.19;5057745;28;795;-76
2022/11/26 07:00:15;;;;;;;;;;;;;;;20.70;27.51;98625.91;4996203;28;902;-76
2022/11/26 07:02:41;;;;;;;;;;;;;;;20.58;28.03;98618.00;4963076;28;1147;-76
2022/11/26 07:05:06;;;;;;;;;;;;;;;20.59;27.67;98621.63;4995883;28;812;-76
2022/11/26 07:07:32;;;;;;;;;;;;;;;21.20;26.84;98630.88;4996277;28;747;-76
2022/11/26 07:09:57;;;;;;;;;;;;;;;21.02;27.32;98630.31;4995578;28;928;-77
2022/11/26 07:12:23;;;;;;;;;;;;;;;21.11;27.03;98626.97;4979922;28;1967;-76
2022/11/26 07:14:48;;;;;;;;;;;;;;;20.73;27.48;98629.94;4995678;28;923;-76
2022/11/26 07:17:14;;;;;;;;;;;;;;;20.51;27.74;98629.38;4996034;28;732;-77
2022/11/26 07:19:39;;;;;;;;;;;;;;;20.90;27.34;98630.91;4996062;28;965;-76
2022/11/26 07:22:05;;;;;;;;;;;;;;;21.08;26.94;98628.59;4995958;28;953;-76
2022/11/26 07:24:30;;;;;;;;;;;;;;;21.26;26.72;98631.97;4996067;28;901;-76
2022/11/26 07:26:56;;;;;;;;;;;;;;;21.20;26.63;98636.53;4995569;28;955;-76
2022/11/26 07:29:21;;;;;;;;;;;;;;;21.06;26.82;98642.38;4995119;28;743;-76
2022/11/26 07:31:46;;;;;;;;;;;;;;;20.73;27.42;98633.56;5039877;28;1898;-76
2022/11/26 07:34:12;;;;;;;;;;;;;;;20.68;27.51;98650.19;5057182;28;703;-76
2022/11/26 07:36:41;;;;;;;;;;;;;;;20.68;27.56;98638.88;5056986;28;1023;-76
2022/11/26 07:39:07;;;;;;;;;;;;;;;21.14;26.79;98648.75;5056799;28;740;-76
2022/11/26 07:41:33;;;;;;;;;;;;;;;21.17;27.12;98642.22;5038910;28;927;-76
2022/11/26 07:43:58;;;;;;;;;;;;;;;20.85;27.12;98646.31;5056688;28;806;-76
2022/11/26 07:46:24;;;;;;;;;;;;;;;20.64;27.90;98652.25;5056918;28;746;-76
2022/11/26 07:48:49;;;;;;;;;;;;;;;20.49;27.93;98654.44;5038761;28;761;-76
2022/11/26 07:51:16;;;;;;;;;;;;;;;20.90;27.34;98639.38;5038864;28;862;-76
2022/11/26 07:53:41;;;;;;;;;;;;;;;21.09;26.89;98652.88;5038897;28;1979;-76
2022/11/26 07:56:07;;;;;;;;;;;;;;;21.08;26.86;98651.25;5056656;28;752;-76
2022/11/26 07:58:32;;;;;;;;;;;;;;;20.60;27.61;98655.13;5038532;28;852;-76
2022/11/26 08:01:05;;;;;;;;;;;;;;;20.47;27.78;98654.88;5038467;28;2240;-76
2022/11/26 08:03:30;;;;;;;;;;;;;;;20.50;27.70;98656.03;5056690;28;968;-76
2022/11/26 08:05:55;;;;;;;;;;;;;;;21.11;26.96;98656.06;5056575;28;1051;-75
2022/11/26 08:08:21;;;;;;;;;;;;;;;21.09;27.00;98664.19;5038442;28;944;-76
2022/11/26 08:10:46;;;;;;;;;;;;;;;21.32;26.52;98658.59;5056710;28;803;-76
2022/11/26 08:13:12;;;;;;;;;;;;;;;20.81;27.18;98657.66;5056212;28;1910;-76
2022/11/26 08:15:37;;;;;;;;;;;;;;;20.87;27.18;98657.19;5056208;28;996;-76
2022/11/26 08:18:03;;;;;;;;;;;;;;;20.59;27.74;98662.00;5055583;28;996;-76
2022/11/26 08:20:28;;;;;;;;;;;;;;;21.12;27.01;98663.31;5056178;28;995;-76
2022/11/26 08:22:53;;;;;;;;;;;;;;;20.87;27.29;98660.81;5056079;28;926;-76
2022/11/26 08:25:19;;;;;;;;;;;;;;;20.91;27.15;98663.63;5056397;28;1011;-75
2022/11/26 08:27:44;;;;;;;;;;;;;;;20.52;27.77;98659.25;5056521;28;944;-75
2022/11/26 08:30:10;;;;;;;;;;;;;;;20.54;27.89;98662.47;5056298;28;956;-75
2022/11/26 08:32:35;;;;;;;;;;;;;;;20.46;28.31;98675.88;5004348;28;1902;-75
2022/11/26 08:35:01;;;;;;;;;;;;;;;20.71;27.75;98667.09;5055844;28;1179;-75
2022/11/26 08:37:26;;;;;;;;;;;;;;;20.99;27.36;98665.13;5056217;28;1009;-75
2022/11/26 08:39:52;;;;;;;;;;;;;;;20.81;27.25;98660.50;5055673;28;902;-75
2022/11/26 08:42:17;;;;;;;;;;;;;;;20.66;27.67;98666.75;5056137;28;829;-74
2022/11/26 08:44:43;;;;;;;;;;;;;;;20.69;27.55;98675.22;5056192;28;877;-74
2022/11/26 08:47:08;;;;;;;;;;;;;;;20.57;27.81;98678.56;5055701;28;952;-74
2022/11/26 08:49:33;;;;;;;;;;;;;;;20.75;27.29;98686.84;5055622;28;955;-75
2022/11/26 08:51:59;;;;;;;;;;;;;;;20.93;27.12;98689.44;5055917;28;1910;-75
2022/11/26 08:54:24;;;;;;;;;;;;;;;20.83;27.19;98685.56;5056195;28;1131;-75
2022/11/26 08:56:50;;;;;;;;;;;;;;;20.38;27.94;98676.34;5056174;28;899;-75
2022/11/26 08:59:16;;;;;;;;;;;;;;;20.36;27.80;98667.47;5056048;28;861;-75
2022/11/26 09:01:41;;;;;;;;;;;;;;;20.61;27.75;98668.03;5056070;28;830;-75
2022/11/26 09:04:07;;;;;;;;;;;;;;;20.85;27.16;98668.16;5055262;28;913;-75
2022/11/26 09:06:32;;;;;;;;;;;;;;;21.03;26.89;98671.53;5055716;28;946;-75
2022/11/26 09:09:13;;;;;;;;;;;;;;;21.03;26.98;98671.53;5055634;28;847;-75
2022/11/26 09:11:42;;;;;;;;;;;;;;;20.62;27.50;98672.44;5055171;28;878;-75
2022/11/26 09:14:07;;;;;;;;;;;;;;;20.36;27.83;98662.63;5055011;28;1979;-74
2022/11/26 09:16:33;;;;;;;;;;;;;;;20.61;27.75;98667.22;5037932;28;973;-76
2022/11/26 09:18:59;;;;;;;;;;;;;;;20.81;27.20;98663.31;5021285;28;901;-76
2022/11/26 09:21:24;;;;;;;;;;;;;;;20.80;27.12;98658.09;5037669;28;932;-77
2022/11/26 09:23:50;;;;;;;;;;;;;;;20.89;27.11;98668.91;5020453;28;887;-76
2022/11/26 09:26:15;;;;;;;;;;;;;;;20.49;27.88;98662.94;5055777;28;942;-76
2022/11/26 09:28:41;;;;;;;;;;;;;;;20.47;27.56;98654.06;5057203;28;896;-76
2022/11/26 09:31:06;;;;;;;;;;;;;;;20.46;27.86;98655.25;5041503;28;864;-76
2022/11/26 09:33:31;;;;;;;;;;;;;;;20.90;27.00;98653.53;5024590;28;1983;-76
2022/11/26 09:36:07;;;;;;;;;;;;;;;20.81;27.29;98654.84;5059444;28;1160;-76
2022/11/26 09:38:32;;;;;;;;;;;;;;;20.88;27.23;98647.47;5041287;28;939;-76
2022/11/26 09:41:10;;;;;;;;;;;;;;;20.78;26.93;98641.56;5058912;28;975;-77
2022/11/26 09:43:41;;;;;;;;;;;;;;;20.43;27.59;98644.81;5059105;28;998;-77
2022/11/26 09:46:07;;;;;;;;;;;;;;;20.32;27.91;98644.94;5040845;28;938;-77
2022/11/26 09:48:32;;;;;;;;;;;;;;;20.95;27.04;98647.41;5024727;28;1116;-77
2022/11/26 09:51:08;;;;;;;;;;;;;;;20.84;27.02;98636.22;5041488;28;877;-76
2022/11/26 09:53:35;;;;;;;;;;;;;;;20.96;26.70;98637.69;5041308;28;1969;-76
2022/11/26 09:56:01;;;;;;;;;;;;;;;21.13;26.74;98642.28;5041361;28;994;-76
2022/11/26 09:58:35;;;;;;;;;;;;;;;20.49;27.38;98637.47;5041380;28;936;-77
2022/11/26 10:01:02;;;;;;;;;;;;;;;20.54;27.63;98634.19;5040714;28;1465;-76
2022/11/26 10:03:28;;;;;;;;;;;;;;;20.38;27.54;98642.44;5024743;28;934;-77
2022/11/26 10:06:05;;;;;;;;;;;;;;;20.90;26.89;98639.38;5058378;28;1461;-76
2022/11/26 10:08:40;;;;;;;;;;;;;;;21.05;26.83;98640.78;5058686;28;952;-76
2022/11/26 10:11:10;;;;;;;;;;;;;;;20.93;26.74;98635.69;5040460;28;952;-77
2022/11/26 10:13:35;;;;;;;;;;;;;;;20.41;27.41;98638.75;5040718;28;1902;-76
2022/11/26 10:16:23;;;;;;;;;;;;;;;20.30;27.72;98636.84;5057403;28;2059;-76
2022/11/26 10:19:01;;;;;;;;;;;;;;;20.38;27.63;98636.78;5040876;28;1003;-77
2022/11/26 10:21:45;;;;;;;;;;;;;;;20.80;27.04;98632.66;5058423;28;996;-77
2022/11/26 10:24:31;;;;;;;;;;;;;;;20.65;27.04;98637.69;5040793;28;1014;-77
2022/11/26 10:26:57;;;;;;;;;;;;;;;21.03;26.50;98629.09;5040558;28;994;-77
2022/11/26 10:29:27;;;;;;;;;;;;;;;20.59;27.04;98633.72;5058647;28;972;-77
2022/11/26 10:31:57;;;;;;;;;;;;;;;20.34;27.69;98630.38;5040912;28;1967;-77
2022/11/26 10:34:24;;;;;;;;;;;;;;;20.59;27.24;98630.09;5040812;28;908;-77
2022/11/26 10:36:49;;;;;;;;;;;;;;;20.83;26.75;98634.63;5052093;28;1243;-77
2022/11/26 10:39:16;;;;;;;;;;;;;;;20.91;26.67;98629.66;5056881;28;884;-77
2022/11/26 10:41:41;;;;;;;;;;;;;;;20.92;26.68;98637.72;5057569;28;977;-77
2022/11/26 10:44:25;;;;;;;;;;;;;;;20.58;27.19;98640.63;5057220;28;951;-76
2022/11/26 10:46:51;;;;;;;;;;;;;;;20.21;27.66;98632.91;5058195;28;894;-77
2022/11/26 10:49:28;;;;;;;;;;;;;;;20.22;27.80;98635.34;5058532;28;991;-77
2022/11/26 10:51:55;;;;;;;;;;;;;;;20.87;26.82;98637.41;5043338;28;1910;-78
2022/11/26 10:54:25;;;;;;;;;;;;;;;20.79;26.76;98640.34;5026086;28;1296;-77
2022/11/26 10:56:54;;;;;;;;;;;;;;;21.00;26.63;98638.44;5027649;28;1178;-77
2022/11/26 10:59:19;;;;;;;;;;;;;;;20.61;26.80;98645.41;5031158;28;1155;-75
2022/11/26 11:01:44;;;;;;;;;;;;;;;20.56;27.05;98643.03;5037316;28;882;-75
2022/11/26 11:04:25;;;;;;;;;;;;;;;20.46;27.26;98643.94;5037610;28;921;-75
2022/11/26 11:06:51;;;;;;;;;;;;;;;20.87;26.98;98645.88;5036513;28;914;-75
2022/11/26 11:09:29;;;;;;;;;;;;;;;20.66;27.09;98653.41;5037387;28;912;-75
2022/11/26 11:12:20;;;;;;;;;;;;;;;20.89;26.66;98663.25;5037237;28;1973;-75
2022/11/26 11:14:46;;;;;;;;;;;;;;;21.11;26.42;98661.72;5034573;28;1068;-75
2022/11/26 11:17:30;;;;;;;;;;;;;;;20.56;27.00;98662.84;5037152;28;900;-75
2022/11/26 11:19:56;;;;;;;;;;;;;;;20.57;27.18;98667.25;5037439;28;1016;-75
2022/11/26 11:22:22;;;;;;;;;;;;;;;20.64;27.24;98660.72;5019449;28;936;-75
2022/11/26 11:24:47;;;;;;;;;;;;;;;20.54;27.15;98662.47;5037018;28;978;-74
2022/11/26 11:27:22;;;;;;;;;;;;;;;20.98;26.86;98664.31;5014718;28;977;-75
2022/11/26 11:29:47;;;;;;;;;;;;;;;21.05;26.30;98666.25;4998647;28;994;-75
2022/11/26 11:32:33;;;;;;;;;;;;;;;20.51;26.92;98657.63;4998779;28;2018;-75
2022/11/26 11:35:10;;;;;;;;;;;;;;;20.58;27.24;98659.59;4998417;28;1033;-75
2022/11/26 11:37:36;;;;;;;;;;;;;;;20.69;26.97;98652.59;4998554;28;1259;-75
2022/11/26 11:40:03;;;;;;;;;;;;;;;20.71;26.64;98655.78;5012155;28;1008;-75
2022/11/26 11:42:31;;;;;;;;;;;;;;;20.78;26.67;98652.88;4998390;28;1039;-75
2022/11/26 11:44:57;;;;;;;;;;;;;;;20.87;26.50;98654.38;4998401;28;999;-74
2022/11/26 11:47:37;;;;;;;;;;;;;;;20.60;26.86;98660.78;5014814;28;928;-75
2022/11/26 11:50:21;;;;;;;;;;;;;;;20.10;27.58;98649.97;5014908;28;926;-75
2022/11/26 11:52:59;;;;;;;;;;;;;;;20.70;26.75;98642.88;5004797;28;1902;-75
2022/11/26 11:55:31;;;;;;;;;;;;;;;20.76;26.57;98641.16;4978638;28;998;-75
2022/11/26 11:58:15;;;;;;;;;;;;;;;21.03;26.28;98643.22;5003394;28;989;-75
2022/11/26 12:00:46;;;;;;;;;;;;;;;20.84;26.36;98638.25;5014011;28;933;-76
2022/11/26 12:03:28;;;;;;;;;;;;;;;20.48;26.96;98647.19;5014609;28;1200;-75
2022/11/26 12:06:00;;;;;;;;;;;;;;;20.24;27.53;98641.34;4998156;28;928;-75
2022/11/26 12:08:25;;;;;;;;;;;;;;;20.71;26.81;98638.81;4998146;28;1088;-75
2022/11/26 12:11:09;;;;;;;;;;;;;;;20.83;26.56;98639.47;5014460;28;963;-75
2022/11/26 12:13:37;;;;;;;;;;;;;;;20.73;26.65;98647.69;5014284;28;2321;-75
2022/11/26 12:16:04;;;;;;;;;;;;;;;20.71;26.62;98641.63;4997781;28;1137;-76
2022/11/26 12:18:31;;;;;;;;;;;;;;;20.36;27.52;98656.16;4998197;28;1096;-75
2022/11/26 12:21:08;;;;;;;;;;;;;;;20.17;27.52;98655.56;4997978;28;1019;-75
2022/11/26 12:23:44;;;;;;;;;;;;;;;20.52;27.24;98647.94;5014064;28;988;-75
2022/11/26 12:26:19;;;;;;;;;;;;;;;20.95;26.42;98658.72;4997831;28;1074;-75
2022/11/26 12:28:54;;;;;;;;;;;;;;;20.93;26.79;98656.28;4997580;28;1008;-75
2022/11/26 12:31:22;;;;;;;;;;;;;;;20.61;26.85;98650.25;5014708;28;1021;-76
2022/11/26 12:33:49;;;;;;;;;;;;;;;20.46;27.05;98660.91;5031428;28;1973;-76
2022/11/26 12:36:30;;;;;;;;;;;;;;;20.32;27.48;98658.25;5031097;28;1196;-75
2022/11/26 12:38:59;;;;;;;;;;;;;;;20.80;26.71;98658.91;5016378;28;919;-76
2022/11/26 12:41:32;;;;;;;;;;;;;;;21.00;26.54;98661.88;5031139;28;982;-75
2022/11/26 12:44:09;;;;;;;;;;;;;;;20.90;26.53;98665.66;5014895;28;1231;-76
2022/11/26 12:46:42;;;;;;;;;;;;;;;20.81;26.81;98654.03;5031179;28;953;-75
2022/11/26 12:49:19;;;;;;;;;;;;;;;20.85;26.75;98659.66;5031403;28;935;-76
2022/11/26 12:51:47;;;;;;;;;;;;;;;20.35;27.71;98654.56;5031456;28;960;-76
2022/11/26 12:54:30;;;;;;;;;;;;;;;20.46;27.58;98656.06;5031680;28;1967;-75
2022/11/26 12:57:04;;;;;;;;;;;;;;;20.85;26.68;98665.31;5031074;28;892;-75
2022/11/26 12:59:29;;;;;;;;;;;;;;;20.87;27.08;98663.66;5031404;28;1078;-76
2022/11/26 13:01:55;;;;;;;;;;;;;;;20.67;27.10;98671.97;5015820;28;939;-76
2022/11/26 13:04:21;;;;;;;;;;;;;;;20.58;27.20;98674.53;5018950;28;1025;-76